createdAt,value
2022-11-16T00:01:35.752Z,4.00
2022-11-16T00:04:04.530Z,3.60
2022-11-16T00:06:32.036Z,3.50
2022-11-16T00:09:20.567Z,3.30
2022-11-16T00:11:51.359Z,3.33
2022-11-16T00:14:20.259Z,3.30
2022-11-16T00:16:47.505Z,3.30
2022-11-16T00:19:14.684Z,3.90
2022-11-16T00:21:42.339Z,3.22
2022-11-16T00:24:13.601Z,4.13
2022-11-16T00:26:41.389Z,3.38
2022-11-16T00:29:15.128Z,3.10
2022-11-16T00:31:42.742Z,3.33
2022-11-16T00:34:09.970Z,3.28
2022-11-16T00:36:37.201Z,3.10
2022-11-16T00:39:04.837Z,2.95
2022-11-16T00:41:31.955Z,3.33
2022-11-16T00:43:59.290Z,3.00
2022-11-16T00:46:26.390Z,3.30
2022-11-16T00:48:53.900Z,3.58
2022-11-16T00:51:21.018Z,3.30
2022-11-16T00:53:48.299Z,3.00
2022-11-16T00:56:15.374Z,3.40
2022-11-16T00:58:44.265Z,3.65
2022-11-16T01:01:12.753Z,3.35
2022-11-16T01:03:40.158Z,3.10
2022-11-16T01:06:13.608Z,3.17
2022-11-16T01:08:42.395Z,2.80
2022-11-16T01:11:28.833Z,3.40
2022-11-16T01:13:59.208Z,3.22
2022-11-16T01:16:26.281Z,3.40
2022-11-16T01:18:55.184Z,3.20
2022-11-16T01:21:23.327Z,3.30
2022-11-16T01:23:51.178Z,3.08
2022-11-16T01:26:18.844Z,3.22
2022-11-16T01:28:46.283Z,3.25
2022-11-16T01:31:14.480Z,3.38
2022-11-16T01:33:42.648Z,3.17
2022-11-16T01:36:19.636Z,2.90
2022-11-16T01:38:47.542Z,3.03
2022-11-16T01:41:27.042Z,3.40
2022-11-16T01:44:07.183Z,3.38
2022-11-16T01:46:49.897Z,3.20
2022-11-16T01:49:20.843Z,3.67
2022-11-16T01:51:57.688Z,3.65
2022-11-16T01:54:27.548Z,3.40
2022-11-16T01:57:03.000Z,3.42
2022-11-16T01:59:40.566Z,3.50
2022-11-16T02:02:14.319Z,3.60
2022-11-16T02:04:41.824Z,3.40
2022-11-16T02:07:27.685Z,3.57
2022-11-16T02:10:16.111Z,3.70
2022-11-16T02:13:18.440Z,3.55
2022-11-16T02:15:58.705Z,3.90
2022-11-16T02:18:45.493Z,3.60
2022-11-16T02:21:26.809Z,3.03
2022-11-16T02:24:21.123Z,3.90
2022-11-16T02:27:06.183Z,3.17
2022-11-16T02:29:39.979Z,3.83
2022-11-16T02:32:17.389Z,3.13
2022-11-16T02:34:52.731Z,3.05
2022-11-16T02:37:23.581Z,3.67
2022-11-16T02:39:57.620Z,3.53
2022-11-16T02:42:56.397Z,3.38
2022-11-16T02:45:29.167Z,3.45
2022-11-16T02:48:01.681Z,3.38
2022-11-16T02:50:30.206Z,3.63
2022-11-16T02:52:57.257Z,3.40
2022-11-16T02:55:28.756Z,3.15
2022-11-16T02:58:02.820Z,3.50
2022-11-16T03:00:43.694Z,3.15
2022-11-16T03:03:17.790Z,3.40
2022-11-16T03:05:50.521Z,3.63
2022-11-16T03:08:35.496Z,3.47
2022-11-16T03:11:27.295Z,2.97
2022-11-16T03:14:03.667Z,3.38
2022-11-16T03:16:45.440Z,3.53
2022-11-16T03:19:17.258Z,3.40
2022-11-16T03:21:49.235Z,3.55
2022-11-16T03:24:16.823Z,3.55
2022-11-16T03:27:02.817Z,3.55
2022-11-16T03:29:34.055Z,3.67
2022-11-16T03:32:26.423Z,3.42
2022-11-16T03:35:03.728Z,3.72
2022-11-16T03:37:33.259Z,3.63
2022-11-16T03:40:04.180Z,3.47
2022-11-16T03:42:33.957Z,3.40
2022-11-16T03:45:01.957Z,3.67
2022-11-16T03:47:30.062Z,3.67
2022-11-16T03:49:57.692Z,3.47
2022-11-16T03:52:25.546Z,3.60
2022-11-16T03:54:52.862Z,3.47
2022-11-16T03:57:20.458Z,3.35
2022-11-16T03:59:53.802Z,3.50
2022-11-16T04:02:21.137Z,3.95
2022-11-16T04:05:08.726Z,3.78
2022-11-16T04:07:56.043Z,3.67
2022-11-16T04:10:41.917Z,3.38
2022-11-16T04:13:31.226Z,3.83
2022-11-16T04:16:17.058Z,3.70
2022-11-16T04:19:03.727Z,3.65
2022-11-16T04:22:02.755Z,3.90
2022-11-16T04:24:38.118Z,3.42
2022-11-16T04:27:28.381Z,3.78
2022-11-16T04:29:58.705Z,3.72
2022-11-16T04:32:53.636Z,3.92
2022-11-16T04:35:39.213Z,4.38
2022-11-16T04:38:08.422Z,4.47
2022-11-16T04:40:36.757Z,3.70
2022-11-16T04:43:05.103Z,3.72
2022-11-16T04:45:58.302Z,4.18
2022-11-16T04:48:33.233Z,4.00
2022-11-16T04:51:02.595Z,3.88
2022-11-16T04:53:30.086Z,3.70
2022-11-16T04:56:12.736Z,3.67
2022-11-16T04:58:39.869Z,4.15
2022-11-16T05:01:08.207Z,4.20
2022-11-16T05:03:36.396Z,4.15
2022-11-16T05:06:04.956Z,4.25
2022-11-16T05:08:32.973Z,4.40
2022-11-16T05:11:02.852Z,3.70
2022-11-16T05:13:30.067Z,3.75
2022-11-16T05:15:57.837Z,3.80
2022-11-16T05:18:25.914Z,3.78
2022-11-16T05:21:01.879Z,4.05
2022-11-16T05:23:56.873Z,4.40
2022-11-16T05:26:28.589Z,4.40
2022-11-16T05:28:55.857Z,3.50
2022-11-16T05:31:23.036Z,3.60
2022-11-16T05:33:50.303Z,3.80
2022-11-16T05:36:18.847Z,3.95
2022-11-16T05:38:46.335Z,4.10
2022-11-16T05:41:14.500Z,3.67
2022-11-16T05:43:42.649Z,3.63
2022-11-16T05:46:17.966Z,3.78
2022-11-16T05:48:45.760Z,3.85
2022-11-16T05:51:13.267Z,4.20
2022-11-16T05:53:40.649Z,4.68
2022-11-16T05:56:08.085Z,3.78
2022-11-16T05:58:38.808Z,4.18
2022-11-16T06:01:06.631Z,4.03
2022-11-16T06:03:35.684Z,4.00
2022-11-16T06:06:04.652Z,4.03
2022-11-16T06:08:32.733Z,4.82
2022-11-16T06:11:04.809Z,4.88
2022-11-16T06:13:33.456Z,4.70
2022-11-16T06:16:02.592Z,4.85
2022-11-16T06:18:32.084Z,4.65
2022-11-16T06:20:59.490Z,4.20
2022-11-16T06:23:27.039Z,4.60
2022-11-16T06:25:55.756Z,4.70
2022-11-16T06:28:26.090Z,4.82
2022-11-16T06:30:54.160Z,4.68
2022-11-16T06:33:23.908Z,5.35
2022-11-16T06:35:51.394Z,4.88
2022-11-16T06:38:24.582Z,4.07
2022-11-16T06:40:56.913Z,5.53
2022-11-16T06:43:26.873Z,4.68
2022-11-16T06:45:58.235Z,4.40
2022-11-16T06:48:26.394Z,4.60
2022-11-16T06:50:54.313Z,5.80
2022-11-16T06:53:27.742Z,5.07
2022-11-16T06:56:06.443Z,4.60
2022-11-16T06:58:41.694Z,4.70
2022-11-16T07:01:12.134Z,5.25
2022-11-16T07:03:41.820Z,5.20
2022-11-16T07:06:11.423Z,5.35
2022-11-16T07:08:40.744Z,4.43
2022-11-16T07:11:10.601Z,6.07
2022-11-16T07:13:39.160Z,5.28
2022-11-16T07:16:09.617Z,5.38
2022-11-16T07:18:41.414Z,4.90
2022-11-16T07:21:10.422Z,6.85
2022-11-16T07:23:39.034Z,6.55
2022-11-16T07:26:09.722Z,5.57
2022-11-16T07:29:09.458Z,6.30
2022-11-16T07:34:31.319Z,4.72
2022-11-16T07:37:06.062Z,4.18
2022-11-16T07:39:33.633Z,5.35
2022-11-16T07:42:00.745Z,4.38
2022-11-16T07:44:44.457Z,4.28
2022-11-16T07:47:11.630Z,4.78
2022-11-16T07:49:38.958Z,4.47
2022-11-16T07:52:18.397Z,4.53
2022-11-16T07:55:06.242Z,5.47
2022-11-16T07:57:34.713Z,5.15
2022-11-16T08:00:06.777Z,8.67
2022-11-16T08:02:43.198Z,4.88
2022-11-16T08:05:17.183Z,4.68
2022-11-16T08:07:44.798Z,5.07
2022-11-16T08:10:11.904Z,4.32
2022-11-16T08:12:40.292Z,6.45
2022-11-16T08:15:08.482Z,8.98
2022-11-16T08:17:35.710Z,5.05
2022-11-16T08:20:05.560Z,3.97
2022-11-16T08:22:32.717Z,5.97
2022-11-16T08:24:59.811Z,4.43
2022-11-16T08:27:27.309Z,5.05
2022-11-16T08:29:56.540Z,3.08
2022-11-16T08:32:23.790Z,4.43
2022-11-16T08:34:51.171Z,3.90
2022-11-16T08:37:18.798Z,4.13
2022-11-16T08:39:47.583Z,3.42
2022-11-16T08:42:15.031Z,2.72
2022-11-16T08:44:46.773Z,2.80
2022-11-16T08:47:16.759Z,2.65
2022-11-16T08:49:55.873Z,2.88
2022-11-16T08:52:25.162Z,3.05
2022-11-16T08:54:53.956Z,3.08
2022-11-16T08:57:21.644Z,3.42
2022-11-16T08:59:53.956Z,3.50
2022-11-16T09:02:25.502Z,3.08
2022-11-16T09:07:21.112Z,2.70
2022-11-16T09:09:48.816Z,2.92
2022-11-16T09:12:16.571Z,2.65
2022-11-16T09:14:43.898Z,3.55
2022-11-16T09:17:11.096Z,2.80
2022-11-16T09:19:38.206Z,2.72
2022-11-16T09:22:05.513Z,2.90
2022-11-16T09:24:32.812Z,5.13
2022-11-16T09:27:01.589Z,3.28
2022-11-16T09:29:28.816Z,3.30
2022-11-16T09:31:56.314Z,4.10
2022-11-16T09:34:23.675Z,6.22
2022-11-16T09:36:50.732Z,3.85
2022-11-16T09:39:33.250Z,4.95
2022-11-16T09:42:27.248Z,4.43
2022-11-16T09:45:12.648Z,6.22
2022-11-16T09:47:49.333Z,4.60
2022-11-16T09:50:43.711Z,4.57
2022-11-16T09:53:38.048Z,3.60
2022-11-16T09:56:11.181Z,3.80
2022-11-16T09:59:00.381Z,3.67
2022-11-16T10:01:32.762Z,7.55
2022-11-16T10:04:26.858Z,3.80
2022-11-16T10:07:22.691Z,3.72
2022-11-16T10:09:50.022Z,3.40
2022-11-16T10:12:31.371Z,4.20
2022-11-16T10:15:39.454Z,5.60
2022-11-16T10:18:27.547Z,4.72
2022-11-16T10:21:23.813Z,3.80
2022-11-16T10:24:27.429Z,4.03
2022-11-16T10:27:17.789Z,3.97
2022-11-16T10:30:08.279Z,4.03
2022-11-16T10:32:56.899Z,4.38
2022-11-16T10:35:26.843Z,3.60
2022-11-16T10:37:54.454Z,4.43
2022-11-16T10:40:30.639Z,4.18
2022-11-16T10:43:10.385Z,3.03
2022-11-16T10:45:49.760Z,4.93
2022-11-16T10:48:37.189Z,4.28
2022-11-16T10:51:09.823Z,5.90
2022-11-16T10:53:43.883Z,5.28
2022-11-16T10:56:16.121Z,4.93
2022-11-16T10:59:23.013Z,3.17
2022-11-16T11:01:53.463Z,3.42
2022-11-16T11:04:31.746Z,4.70
2022-11-16T11:07:01.135Z,4.65
2022-11-16T11:09:33.617Z,4.95
2022-11-16T11:12:38.285Z,3.65
2022-11-16T11:15:11.424Z,6.70
2022-11-16T11:17:44.302Z,3.38
2022-11-16T11:20:24.380Z,3.92
2022-11-16T11:22:57.799Z,5.72
2022-11-16T11:25:41.457Z,3.88
2022-11-16T11:28:32.266Z,8.60
2022-11-16T11:31:01.714Z,4.90
2022-11-16T11:33:38.707Z,6.43
2022-11-16T11:36:27.650Z,16.35
2022-11-16T11:38:58.482Z,9.98
2022-11-16T11:41:28.532Z,13.13
2022-11-16T11:44:03.428Z,5.03
2022-11-16T11:47:18.269Z,6.50
2022-11-16T11:49:34.054Z,10.25
2022-11-16T11:52:18.029Z,14.50
2022-11-16T11:54:47.991Z,8.65
2022-11-16T11:57:22.191Z,7.55
2022-11-16T11:59:54.559Z,3.70
2022-11-16T12:02:49.613Z,4.05
2022-11-16T12:06:06.316Z,2.90
2022-11-16T12:08:39.713Z,3.65
2022-11-16T12:11:27.503Z,9.07
2022-11-16T12:13:54.655Z,34.08
2022-11-16T12:16:24.664Z,19.20
2022-11-16T12:18:55.749Z,26.83
2022-11-16T12:24:23.356Z,3.28
2022-11-16T12:27:11.581Z,15.18
2022-11-16T12:29:43.712Z,7.45
2022-11-16T12:32:48.282Z,6.95
2022-11-16T12:35:26.574Z,3.65
2022-11-16T12:38:38.302Z,6.85
2022-11-16T12:41:26.356Z,7.18
2022-11-16T12:44:16.611Z,3.85
2022-11-16T12:47:05.896Z,8.27
2022-11-16T12:49:45.425Z,3.95
2022-11-16T12:52:38.184Z,70.85
2022-11-16T12:55:57.803Z,23.42
2022-11-16T12:58:30.829Z,28.35
2022-11-16T13:01:19.109Z,9.85
2022-11-16T13:04:24.434Z,18.35
2022-11-16T13:07:12.822Z,8.25
2022-11-16T13:09:48.940Z,7.63
2022-11-16T13:12:19.463Z,47.35
2022-11-16T13:14:49.862Z,15.32
2022-11-16T13:17:24.197Z,21.73
2022-11-16T13:20:22.113Z,19.50
2022-11-16T13:23:07.039Z,6.88
2022-11-16T13:26:03.979Z,3.60
2022-11-16T13:28:50.764Z,3.95
2022-11-16T13:31:43.963Z,8.38
2022-11-16T13:34:35.754Z,5.85
2022-11-16T13:37:40.169Z,3.30
2022-11-16T13:40:07.386Z,8.35
2022-11-16T13:43:02.958Z,4.07
2022-11-16T13:45:57.491Z,3.50
2022-11-16T13:48:34.843Z,7.95
2022-11-16T13:51:05.849Z,8.98
2022-11-16T13:56:49.135Z,4.38
2022-11-16T13:59:22.942Z,4.10
2022-11-16T14:01:59.462Z,3.97
2022-11-16T14:04:41.911Z,4.95
2022-11-16T14:07:29.636Z,3.50
2022-11-16T14:09:57.397Z,4.22
2022-11-16T14:12:50.476Z,3.92
2022-11-16T14:15:26.525Z,4.30
2022-11-16T14:18:03.217Z,8.95
2022-11-16T14:20:30.377Z,4.30
2022-11-16T14:23:34.619Z,4.53
2022-11-16T14:26:42.202Z,4.03
2022-11-16T14:29:15.584Z,16.25
2022-11-16T14:31:56.951Z,10.02
2022-11-16T14:34:40.183Z,5.15
2022-11-16T14:37:30.537Z,4.13
2022-11-16T14:40:08.550Z,16.83
2022-11-16T14:43:15.427Z,4.97
2022-11-16T14:45:39.176Z,3.70
2022-11-16T14:48:17.638Z,3.80
2022-11-16T14:50:58.912Z,6.03
2022-11-16T14:53:28.387Z,3.33
2022-11-16T14:56:11.018Z,3.80
2022-11-16T14:58:39.104Z,3.78
2022-11-16T15:01:14.664Z,4.68
2022-11-16T15:03:52.717Z,4.95
2022-11-16T15:06:21.125Z,3.75
2022-11-16T15:09:02.403Z,3.90
2022-11-16T15:11:56.263Z,4.20
2022-11-16T15:14:30.133Z,4.45
2022-11-16T15:16:59.230Z,3.65
2022-11-16T15:19:30.723Z,3.60
2022-11-16T15:22:00.524Z,3.47
2022-11-16T15:24:33.766Z,3.33
2022-11-16T15:27:35.922Z,3.78
2022-11-16T15:30:34.246Z,4.38
2022-11-16T15:33:11.298Z,3.80
2022-11-16T15:35:38.998Z,4.57
2022-11-16T15:38:29.421Z,4.00
2022-11-16T15:40:59.526Z,3.78
2022-11-16T15:43:49.760Z,4.07
2022-11-16T15:46:32.309Z,3.83
2022-11-16T15:49:00.156Z,3.13
2022-11-16T15:51:32.986Z,3.45
2022-11-16T15:54:15.281Z,3.83
2022-11-16T15:56:43.026Z,4.07
2022-11-16T15:59:13.489Z,3.58
2022-11-16T16:01:45.432Z,3.90
2022-11-16T16:04:17.981Z,3.80
2022-11-16T16:06:52.940Z,4.15
2022-11-16T16:09:29.131Z,4.78
2022-11-16T16:12:16.783Z,4.68
2022-11-16T16:14:44.845Z,4.22
2022-11-16T16:17:22.201Z,7.18
2022-11-16T16:20:00.769Z,5.97
2022-11-16T16:22:37.874Z,5.82
2022-11-16T16:25:06.777Z,5.93
2022-11-16T16:27:40.011Z,5.28
2022-11-16T16:30:08.810Z,6.53
2022-11-16T16:32:37.916Z,5.93
2022-11-16T16:35:07.789Z,6.18
2022-11-16T16:37:38.723Z,6.68
2022-11-16T16:40:06.693Z,7.65
2022-11-16T16:42:33.977Z,9.82
2022-11-16T16:45:02.404Z,13.15
2022-11-16T16:47:29.841Z,9.68
2022-11-16T16:49:57.661Z,6.70
2022-11-16T16:52:24.949Z,5.47
2022-11-16T16:54:52.101Z,5.05
2022-11-16T16:57:19.321Z,5.70
2022-11-16T16:59:49.914Z,6.07
2022-11-16T17:02:18.223Z,4.88
2022-11-16T17:04:47.043Z,6.18
2022-11-16T17:07:15.988Z,7.45
2022-11-16T17:09:43.307Z,6.80
2022-11-16T17:12:11.169Z,6.18
2022-11-16T17:14:39.212Z,6.85
2022-11-16T17:17:06.393Z,8.48
2022-11-16T17:19:33.512Z,7.35
2022-11-16T17:22:00.750Z,6.35
2022-11-16T17:24:27.917Z,7.43
2022-11-16T17:26:55.273Z,7.68
2022-11-16T17:29:22.424Z,7.05
2022-11-16T17:31:49.612Z,6.43
2022-11-16T17:34:16.782Z,18.08
2022-11-16T17:36:45.012Z,11.05
2022-11-16T17:39:12.273Z,24.02
2022-11-16T17:41:40.755Z,15.30
2022-11-16T17:44:08.791Z,9.85
2022-11-16T17:46:36.011Z,16.42
2022-11-16T17:49:03.272Z,10.25
2022-11-16T17:51:30.504Z,19.17
2022-11-16T17:53:57.907Z,36.90
2022-11-16T17:56:27.376Z,23.13
2022-11-16T17:59:00.902Z,14.90
2022-11-16T18:01:28.523Z,9.63
2022-11-16T18:03:56.109Z,12.40
2022-11-16T18:06:25.340Z,38.35
2022-11-16T18:08:53.368Z,12.35
2022-11-16T18:11:25.786Z,22.75
2022-11-16T18:13:55.348Z,7.28
2022-11-16T18:16:26.580Z,9.02
2022-11-16T18:19:05.322Z,22.90
2022-11-16T18:21:38.393Z,34.67
2022-11-16T18:24:06.370Z,7.80
2022-11-16T18:26:33.599Z,21.08
2022-11-16T18:29:00.944Z,19.77
2022-11-16T18:31:29.889Z,18.92
2022-11-16T18:33:57.060Z,8.65
2022-11-16T18:36:24.360Z,8.98
2022-11-16T18:38:51.603Z,13.88
2022-11-16T18:41:21.853Z,10.00
2022-11-16T18:43:53.483Z,16.00
2022-11-16T18:46:23.127Z,13.82
2022-11-16T18:48:53.319Z,18.55
2022-11-16T18:51:23.002Z,8.90
2022-11-16T18:53:51.237Z,9.30
2022-11-16T18:56:19.523Z,12.32
2022-11-16T18:58:52.428Z,27.10
2022-11-16T19:01:26.925Z,48.03
2022-11-16T19:03:57.987Z,21.30
2022-11-16T19:06:25.628Z,13.20
2022-11-16T19:09:01.346Z,23.35
2022-11-16T19:14:10.380Z,16.58
2022-11-16T19:16:41.873Z,23.83
2022-11-16T19:19:13.115Z,16.17
2022-11-16T19:21:43.302Z,31.70
2022-11-16T19:24:13.632Z,23.80
2022-11-16T19:26:43.031Z,26.92
2022-11-16T19:29:13.457Z,30.83
2022-11-16T19:31:47.062Z,26.65
2022-11-16T19:34:40.886Z,22.77
2022-11-16T19:37:09.620Z,19.13
2022-11-16T19:39:36.969Z,20.33
2022-11-16T19:42:04.728Z,27.83
2022-11-16T19:44:31.864Z,36.78
2022-11-16T19:47:00.835Z,33.72
2022-11-16T19:49:28.277Z,33.85
2022-11-16T19:51:56.399Z,17.02
2022-11-16T19:54:24.467Z,28.92
2022-11-16T19:56:55.011Z,43.00
2022-11-16T19:59:23.243Z,53.50
2022-11-16T20:01:50.516Z,37.75
2022-11-16T20:04:17.733Z,40.42
2022-11-16T20:06:45.132Z,32.80
2022-11-16T20:09:12.979Z,51.20
2022-11-16T20:11:41.552Z,53.50
2022-11-16T20:14:10.847Z,33.08
2022-11-16T20:16:42.476Z,28.60
2022-11-16T20:19:10.681Z,37.05
2022-11-16T20:21:39.928Z,23.65
2022-11-16T20:24:09.714Z,25.20
2022-11-16T20:26:40.748Z,22.10
2022-11-16T20:29:10.351Z,12.57
2022-11-16T20:31:38.550Z,21.52
2022-11-16T20:34:06.224Z,23.98
2022-11-16T20:36:34.169Z,95.25
2022-11-16T20:39:02.503Z,67.65
2022-11-16T20:41:31.437Z,95.93
2022-11-16T20:44:00.418Z,67.22
2022-11-16T20:46:29.936Z,39.28
2022-11-16T20:48:59.506Z,24.52
2022-11-16T20:51:27.125Z,24.88
2022-11-16T20:53:54.230Z,19.23
2022-11-16T20:56:22.192Z,12.13
2022-11-16T20:58:50.628Z,11.98
2022-11-16T21:01:29.073Z,11.02
2022-11-16T21:03:57.747Z,12.65
2022-11-16T21:06:25.599Z,9.35
2022-11-16T21:08:53.237Z,12.07
2022-11-16T21:11:28.213Z,10.70
2022-11-16T21:14:13.891Z,10.43
2022-11-16T21:16:44.350Z,9.98
2022-11-16T21:19:11.976Z,12.93
2022-11-16T21:21:41.085Z,10.73
2022-11-16T21:24:09.279Z,8.75
2022-11-16T21:26:37.454Z,9.13
2022-11-16T21:29:05.251Z,11.68
2022-11-16T21:31:34.957Z,11.48
2022-11-16T21:34:02.383Z,18.27
2022-11-16T21:36:31.784Z,12.52
2022-11-16T21:38:59.509Z,12.43
2022-11-16T21:41:26.726Z,11.32
2022-11-16T21:43:54.105Z,47.25
2022-11-16T21:46:24.987Z,14.70
2022-11-16T21:48:53.915Z,15.02
2022-11-16T21:51:24.904Z,18.83
2022-11-16T21:53:52.563Z,21.13
2022-11-16T21:56:21.906Z,19.23
2022-11-16T21:58:52.593Z,22.05
2022-11-16T22:01:21.056Z,22.02
2022-11-16T22:04:08.625Z,10.55
2022-11-16T22:06:54.249Z,31.10
2022-11-16T22:09:21.679Z,85.82
2022-11-16T22:11:48.892Z,27.55
2022-11-16T22:14:16.120Z,15.93
2022-11-16T22:16:43.423Z,12.23
2022-11-16T22:19:10.672Z,16.48
2022-11-16T22:21:37.806Z,18.67
2022-11-16T22:24:05.520Z,13.10
2022-11-16T22:26:33.669Z,10.77
2022-11-16T22:29:01.104Z,7.07
2022-11-16T22:31:28.307Z,6.72
2022-11-16T22:33:55.517Z,6.22
2022-11-16T22:36:22.589Z,6.80
2022-11-16T22:38:49.863Z,5.90
2022-11-16T22:41:17.111Z,6.22
2022-11-16T22:43:44.162Z,6.22
2022-11-16T22:46:11.376Z,7.13
2022-11-16T22:48:40.171Z,9.88
2022-11-16T22:51:12.267Z,6.00
2022-11-16T22:56:08.234Z,4.55
2022-11-16T22:58:37.090Z,5.30
2022-11-16T23:01:05.511Z,5.50
2022-11-16T23:03:32.753Z,5.00
2022-11-16T23:06:02.754Z,5.60
2022-11-16T23:08:30.309Z,7.20
2022-11-16T23:11:21.773Z,6.45
2022-11-16T23:14:07.898Z,5.20
2022-11-16T23:16:35.713Z,6.50
2022-11-16T23:19:03.206Z,4.88
2022-11-16T23:21:48.717Z,5.13
2022-11-16T23:24:34.448Z,7.38
2022-11-16T23:27:22.400Z,5.28
2022-11-16T23:29:49.965Z,5.55
2022-11-16T23:32:17.499Z,4.35
2022-11-16T23:34:44.754Z,4.85
2022-11-16T23:37:11.828Z,5.18
2022-11-16T23:39:38.855Z,11.90
2022-11-16T23:42:24.473Z,25.90
2022-11-16T23:44:51.644Z,11.32
2022-11-16T23:47:19.018Z,6.47
2022-11-16T23:49:46.091Z,5.35
2022-11-16T23:52:13.253Z,4.30
2022-11-16T23:54:40.410Z,3.90
2022-11-16T23:57:07.789Z,4.13
2022-11-16T23:59:35.089Z,4.28
